Marshalltown, Iowa
Current Conditions -  °F | °C
As of 6:53 PM on Tuesday 27 Jan 2015 (Local Time) from KMIW Reporting Station
Overcast Overcast  
Wind Chill: 21°   Ceiling: 1300
Heat Index: 31°   Visibility: 10mi
Dew Point: 27°   Wind: 13mph
Humidity: 85%   Direction: 130°SE
Pressure: 30.16"   Gusts: NA
Location:  42.05°N, 92.91°W
Report Text: KMIW 280053Z AUTO 13011KT 10SM OVC013 M01/M03 A3016 RMK AO2 SLP224 T10061028
Loading
Personal Weather Stations






























Interactive Weather Map New forecast layout! Learn more

10-Day Weather Forecast

Advertisements
Track Severe Weather on mobile